sensor_id;sensor_type;location;lat;lon;timestamp;P1;durP1;ratioP1;P2;durP2;ratioP2
48613;SDS011;34408;51.426;5.444;2022-07-19T00:01:31;4.82;;;3.17;;
48613;SDS011;34408;51.426;5.444;2022-07-19T00:04:00;10.18;;;2.72;;
48613;SDS011;34408;51.426;5.444;2022-07-19T00:06:28;5.05;;;2.63;;
48613;SDS011;34408;51.426;5.444;2022-07-19T00:08:56;5.00;;;3.10;;
48613;SDS011;34408;51.426;5.444;2022-07-19T00:11:26;4.13;;;2.65;;
48613;SDS011;34408;51.426;5.444;2022-07-19T00:13:53;4.95;;;2.90;;
48613;SDS011;34408;51.426;5.444;2022-07-19T00:16:21;4.85;;;3.05;;
48613;SDS011;34408;51.426;5.444;2022-07-19T00:18:50;7.57;;;3.55;;
48613;SDS011;34408;51.426;5.444;2022-07-19T00:21:19;5.40;;;3.03;;
48613;SDS011;34408;51.426;5.444;2022-07-19T00:23:47;5.82;;;2.67;;
48613;SDS011;34408;51.426;5.444;2022-07-19T00:26:15;6.80;;;2.72;;
48613;SDS011;34408;51.426;5.444;2022-07-19T00:28:43;4.25;;;2.75;;
48613;SDS011;34408;51.426;5.444;2022-07-19T00:31:10;6.65;;;3.05;;
48613;SDS011;34408;51.426;5.444;2022-07-19T00:33:38;6.65;;;3.30;;
48613;SDS011;34408;51.426;5.444;2022-07-19T00:36:06;7.35;;;3.25;;
48613;SDS011;34408;51.426;5.444;2022-07-19T00:38:35;5.57;;;3.15;;
48613;SDS011;34408;51.426;5.444;2022-07-19T00:41:03;4.93;;;2.72;;
48613;SDS011;34408;51.426;5.444;2022-07-19T00:43:31;5.95;;;2.90;;
48613;SDS011;34408;51.426;5.444;2022-07-19T00:45:59;4.68;;;2.75;;
48613;SDS011;34408;51.426;5.444;2022-07-19T00:48:27;5.55;;;2.97;;
48613;SDS011;34408;51.426;5.444;2022-07-19T00:50:55;8.45;;;3.45;;
48613;SDS011;34408;51.426;5.444;2022-07-19T00:53:22;5.75;;;3.03;;
48613;SDS011;34408;51.426;5.444;2022-07-19T00:55:52;4.55;;;2.83;;
48613;SDS011;34408;51.426;5.444;2022-07-19T00:58:22;4.07;;;2.58;;
48613;SDS011;34408;51.426;5.444;2022-07-19T01:00:51;5.57;;;2.55;;
48613;SDS011;34408;51.426;5.444;2022-07-19T01:03:19;6.13;;;3.03;;
48613;SDS011;34408;51.426;5.444;2022-07-19T01:05:47;6.15;;;2.90;;
48613;SDS011;34408;51.426;5.444;2022-07-19T01:08:15;4.63;;;2.90;;
48613;SDS011;34408;51.426;5.444;2022-07-19T01:10:43;6.00;;;3.05;;
48613;SDS011;34408;51.426;5.444;2022-07-19T01:13:13;3.45;;;2.50;;
48613;SDS011;34408;51.426;5.444;2022-07-19T01:15:41;5.18;;;2.97;;
48613;SDS011;34408;51.426;5.444;2022-07-19T01:18:09;4.07;;;2.42;;
48613;SDS011;34408;51.426;5.444;2022-07-19T01:20:37;4.80;;;2.58;;
48613;SDS011;34408;51.426;5.444;2022-07-19T01:23:07;4.85;;;2.58;;
48613;SDS011;34408;51.426;5.444;2022-07-19T01:25:35;4.63;;;2.95;;
48613;SDS011;34408;51.426;5.444;2022-07-19T01:28:04;4.18;;;2.47;;
48613;SDS011;34408;51.426;5.444;2022-07-19T01:30:33;5.80;;;2.60;;
48613;SDS011;34408;51.426;5.444;2022-07-19T01:33:02;5.25;;;2.70;;
48613;SDS011;34408;51.426;5.444;2022-07-19T01:35:30;4.05;;;2.80;;
48613;SDS011;34408;51.426;5.444;2022-07-19T01:37:58;5.22;;;2.75;;
48613;SDS011;34408;51.426;5.444;2022-07-19T01:40:27;4.47;;;2.65;;
48613;SDS011;34408;51.426;5.444;2022-07-19T01:42:55;3.97;;;2.78;;
48613;SDS011;34408;51.426;5.444;2022-07-19T01:45:23;3.55;;;2.45;;
48613;SDS011;34408;51.426;5.444;2022-07-19T01:47:51;4.40;;;2.83;;
48613;SDS011;34408;51.426;5.444;2022-07-19T01:50:19;4.15;;;2.78;;
48613;SDS011;34408;51.426;5.444;2022-07-19T01:52:46;7.13;;;3.17;;
48613;SDS011;34408;51.426;5.444;2022-07-19T01:55:16;7.20;;;2.75;;
48613;SDS011;34408;51.426;5.444;2022-07-19T01:57:46;4.75;;;2.50;;
48613;SDS011;34408;51.426;5.444;2022-07-19T02:00:14;4.43;;;2.70;;
48613;SDS011;34408;51.426;5.444;2022-07-19T02:02:43;6.05;;;2.50;;
48613;SDS011;34408;51.426;5.444;2022-07-19T02:05:11;4.75;;;2.65;;
48613;SDS011;34408;51.426;5.444;2022-07-19T02:07:40;4.55;;;2.60;;
48613;SDS011;34408;51.426;5.444;2022-07-19T02:10:08;4.80;;;3.00;;
48613;SDS011;34408;51.426;5.444;2022-07-19T02:12:37;6.93;;;2.70;;
48613;SDS011;34408;51.426;5.444;2022-07-19T02:15:07;4.15;;;2.55;;
48613;SDS011;34408;51.426;5.444;2022-07-19T02:17:35;5.75;;;2.63;;
48613;SDS011;34408;51.426;5.444;2022-07-19T02:20:04;6.22;;;2.58;;
48613;SDS011;34408;51.426;5.444;2022-07-19T02:22:33;5.88;;;2.75;;
48613;SDS011;34408;51.426;5.444;2022-07-19T02:25:01;7.05;;;2.70;;
48613;SDS011;34408;51.426;5.444;2022-07-19T02:27:29;4.07;;;2.75;;
48613;SDS011;34408;51.426;5.444;2022-07-19T02:29:57;6.40;;;2.65;;
48613;SDS011;34408;51.426;5.444;2022-07-19T02:32:26;5.28;;;3.28;;
48613;SDS011;34408;51.426;5.444;2022-07-19T02:34:54;5.30;;;2.55;;
48613;SDS011;34408;51.426;5.444;2022-07-19T02:37:21;5.78;;;2.45;;
48613;SDS011;34408;51.426;5.444;2022-07-19T02:39:49;5.07;;;2.80;;
48613;SDS011;34408;51.426;5.444;2022-07-19T02:42:17;6.97;;;2.85;;
48613;SDS011;34408;51.426;5.444;2022-07-19T02:44:45;5.45;;;2.70;;
48613;SDS011;34408;51.426;5.444;2022-07-19T02:47:12;5.60;;;3.05;;
48613;SDS011;34408;51.426;5.444;2022-07-19T02:49:42;4.88;;;2.80;;
48613;SDS011;34408;51.426;5.444;2022-07-19T02:52:09;8.52;;;3.28;;
48613;SDS011;34408;51.426;5.444;2022-07-19T02:54:37;3.75;;;2.38;;
48613;SDS011;34408;51.426;5.444;2022-07-19T02:57:05;5.30;;;2.53;;
48613;SDS011;34408;51.426;5.444;2022-07-19T02:59:33;5.70;;;2.63;;
48613;SDS011;34408;51.426;5.444;2022-07-19T03:02:01;4.30;;;2.58;;
48613;SDS011;34408;51.426;5.444;2022-07-19T03:04:29;4.80;;;2.78;;
48613;SDS011;34408;51.426;5.444;2022-07-19T03:06:58;4.53;;;2.83;;
48613;SDS011;34408;51.426;5.444;2022-07-19T03:09:26;5.18;;;2.80;;
48613;SDS011;34408;51.426;5.444;2022-07-19T03:11:54;5.20;;;2.70;;
48613;SDS011;34408;51.426;5.444;2022-07-19T03:14:22;4.75;;;2.90;;
48613;SDS011;34408;51.426;5.444;2022-07-19T03:16:50;6.28;;;2.75;;
48613;SDS011;34408;51.426;5.444;2022-07-19T03:19:18;8.35;;;3.13;;
48613;SDS011;34408;51.426;5.444;2022-07-19T03:21:46;4.20;;;2.75;;
48613;SDS011;34408;51.426;5.444;2022-07-19T03:24:15;5.10;;;3.00;;
48613;SDS011;34408;51.426;5.444;2022-07-19T03:26:42;5.75;;;2.85;;
48613;SDS011;34408;51.426;5.444;2022-07-19T03:29:10;4.93;;;2.72;;
48613;SDS011;34408;51.426;5.444;2022-07-19T03:31:38;5.18;;;3.00;;
48613;SDS011;34408;51.426;5.444;2022-07-19T03:34:06;7.50;;;3.17;;
48613;SDS011;34408;51.426;5.444;2022-07-19T03:36:34;9.23;;;4.25;;
48613;SDS011;34408;51.426;5.444;2022-07-19T03:39:01;4.57;;;2.58;;
48613;SDS011;34408;51.426;5.444;2022-07-19T03:41:31;5.63;;;3.42;;
48613;SDS011;34408;51.426;5.444;2022-07-19T03:43:59;8.52;;;3.00;;
48613;SDS011;34408;51.426;5.444;2022-07-19T03:46:27;5.03;;;3.22;;
48613;SDS011;34408;51.426;5.444;2022-07-19T03:48:55;6.30;;;3.08;;
48613;SDS011;34408;51.426;5.444;2022-07-19T03:51:24;4.45;;;2.80;;
48613;SDS011;34408;51.426;5.444;2022-07-19T03:53:52;5.68;;;3.20;;
48613;SDS011;34408;51.426;5.444;2022-07-19T03:56:19;10.40;;;3.35;;
48613;SDS011;34408;51.426;5.444;2022-07-19T03:58:48;4.55;;;2.55;;
48613;SDS011;34408;51.426;5.444;2022-07-19T04:01:16;7.70;;;3.40;;
48613;SDS011;34408;51.426;5.444;2022-07-19T04:03:49;4.95;;;3.05;;
48613;SDS011;34408;51.426;5.444;2022-07-19T04:06:17;4.18;;;2.67;;
48613;SDS011;34408;51.426;5.444;2022-07-19T04:08:45;5.55;;;3.15;;
48613;SDS011;34408;51.426;5.444;2022-07-19T04:11:13;6.40;;;3.08;;
48613;SDS011;34408;51.426;5.444;2022-07-19T04:13:40;4.75;;;2.92;;
48613;SDS011;34408;51.426;5.444;2022-07-19T04:16:09;4.40;;;3.30;;
48613;SDS011;34408;51.426;5.444;2022-07-19T04:18:37;4.32;;;3.10;;
48613;SDS011;34408;51.426;5.444;2022-07-19T04:21:05;9.15;;;3.15;;
48613;SDS011;34408;51.426;5.444;2022-07-19T04:23:34;6.45;;;3.40;;
48613;SDS011;34408;51.426;5.444;2022-07-19T04:26:02;4.32;;;3.30;;
48613;SDS011;34408;51.426;5.444;2022-07-19T04:28:30;5.70;;;3.50;;
48613;SDS011;34408;51.426;5.444;2022-07-19T04:30:58;6.75;;;3.40;;
48613;SDS011;34408;51.426;5.444;2022-07-19T04:33:27;6.78;;;3.50;;
48613;SDS011;34408;51.426;5.444;2022-07-19T04:35:55;5.05;;;2.90;;
48613;SDS011;34408;51.426;5.444;2022-07-19T04:38:22;6.50;;;3.10;;
48613;SDS011;34408;51.426;5.444;2022-07-19T04:40:50;5.80;;;3.13;;
48613;SDS011;34408;51.426;5.444;2022-07-19T04:47:06;7.65;;;3.10;;
48613;SDS011;34408;51.426;5.444;2022-07-19T04:49:35;6.32;;;3.22;;
48613;SDS011;34408;51.426;5.444;2022-07-19T04:52:03;4.70;;;2.72;;
48613;SDS011;34408;51.426;5.444;2022-07-19T04:54:32;6.05;;;3.13;;
48613;SDS011;34408;51.426;5.444;2022-07-19T04:57:00;6.70;;;3.42;;
48613;SDS011;34408;51.426;5.444;2022-07-19T04:59:28;8.77;;;3.60;;
48613;SDS011;34408;51.426;5.444;2022-07-19T05:01:55;5.00;;;3.00;;
48613;SDS011;34408;51.426;5.444;2022-07-19T05:04:23;8.05;;;3.35;;
48613;SDS011;34408;51.426;5.444;2022-07-19T05:06:53;7.50;;;3.50;;
48613;SDS011;34408;51.426;5.444;2022-07-19T05:09:23;6.13;;;3.40;;
48613;SDS011;34408;51.426;5.444;2022-07-19T05:11:51;4.47;;;3.30;;
48613;SDS011;34408;51.426;5.444;2022-07-19T05:14:20;5.47;;;3.00;;
48613;SDS011;34408;51.426;5.444;2022-07-19T05:16:48;9.63;;;3.08;;
48613;SDS011;34408;51.426;5.444;2022-07-19T05:19:18;13.90;;;4.03;;
48613;SDS011;34408;51.426;5.444;2022-07-19T05:21:46;5.95;;;3.08;;
48613;SDS011;34408;51.426;5.444;2022-07-19T05:24:15;6.38;;;3.17;;
48613;SDS011;34408;51.426;5.444;2022-07-19T05:26:43;10.30;;;3.63;;
48613;SDS011;34408;51.426;5.444;2022-07-19T05:29:11;4.85;;;3.10;;
48613;SDS011;34408;51.426;5.444;2022-07-19T05:31:39;7.60;;;3.35;;
48613;SDS011;34408;51.426;5.444;2022-07-19T05:34:07;4.63;;;3.00;;
48613;SDS011;34408;51.426;5.444;2022-07-19T05:36:34;4.97;;;2.90;;
48613;SDS011;34408;51.426;5.444;2022-07-19T05:39:02;4.93;;;3.10;;
48613;SDS011;34408;51.426;5.444;2022-07-19T05:41:32;8.75;;;3.25;;
48613;SDS011;34408;51.426;5.444;2022-07-19T05:44:00;5.72;;;3.55;;
48613;SDS011;34408;51.426;5.444;2022-07-19T05:46:28;4.38;;;2.92;;
48613;SDS011;34408;51.426;5.444;2022-07-19T05:48:56;6.00;;;3.30;;
48613;SDS011;34408;51.426;5.444;2022-07-19T05:51:24;6.05;;;2.97;;
48613;SDS011;34408;51.426;5.444;2022-07-19T05:53:51;8.52;;;3.78;;
48613;SDS011;34408;51.426;5.444;2022-07-19T05:56:19;7.03;;;3.03;;
48613;SDS011;34408;51.426;5.444;2022-07-19T05:58:48;4.72;;;3.05;;
48613;SDS011;34408;51.426;5.444;2022-07-19T06:01:16;6.47;;;3.20;;
48613;SDS011;34408;51.426;5.444;2022-07-19T06:03:49;4.03;;;2.92;;
48613;SDS011;34408;51.426;5.444;2022-07-19T06:06:24;6.32;;;2.95;;
48613;SDS011;34408;51.426;5.444;2022-07-19T06:08:53;6.65;;;3.15;;
48613;SDS011;34408;51.426;5.444;2022-07-19T06:11:22;7.05;;;3.10;;
48613;SDS011;34408;51.426;5.444;2022-07-19T06:13:52;6.85;;;4.03;;
48613;SDS011;34408;51.426;5.444;2022-07-19T06:16:20;7.93;;;3.28;;
48613;SDS011;34408;51.426;5.444;2022-07-19T06:18:49;7.85;;;3.45;;
48613;SDS011;34408;51.426;5.444;2022-07-19T06:21:17;9.88;;;4.20;;
48613;SDS011;34408;51.426;5.444;2022-07-19T06:23:46;6.22;;;3.60;;
48613;SDS011;34408;51.426;5.444;2022-07-19T06:26:14;7.32;;;3.58;;
48613;SDS011;34408;51.426;5.444;2022-07-19T06:28:42;5.75;;;3.55;;
48613;SDS011;34408;51.426;5.444;2022-07-19T06:31:12;4.90;;;3.25;;
48613;SDS011;34408;51.426;5.444;2022-07-19T06:33:41;5.55;;;3.08;;
48613;SDS011;34408;51.426;5.444;2022-07-19T06:36:09;6.65;;;3.70;;
48613;SDS011;34408;51.426;5.444;2022-07-19T06:38:38;6.03;;;3.35;;
48613;SDS011;34408;51.426;5.444;2022-07-19T06:41:07;8.18;;;3.28;;
48613;SDS011;34408;51.426;5.444;2022-07-19T06:43:35;5.55;;;3.40;;
48613;SDS011;34408;51.426;5.444;2022-07-19T06:46:03;7.65;;;3.10;;
48613;SDS011;34408;51.426;5.444;2022-07-19T06:48:32;6.70;;;3.60;;
48613;SDS011;34408;51.426;5.444;2022-07-19T06:51:00;7.32;;;3.35;;
48613;SDS011;34408;51.426;5.444;2022-07-19T06:53:28;3.88;;;2.53;;
48613;SDS011;34408;51.426;5.444;2022-07-19T06:55:56;4.95;;;3.15;;
48613;SDS011;34408;51.426;5.444;2022-07-19T06:58:24;7.25;;;3.55;;
48613;SDS011;34408;51.426;5.444;2022-07-19T07:00:52;13.65;;;3.70;;
48613;SDS011;34408;51.426;5.444;2022-07-19T07:03:20;5.85;;;2.92;;
48613;SDS011;34408;51.426;5.444;2022-07-19T07:05:49;7.80;;;2.97;;
48613;SDS011;34408;51.426;5.444;2022-07-19T07:08:17;5.53;;;3.42;;
48613;SDS011;34408;51.426;5.444;2022-07-19T07:10:45;5.13;;;2.60;;
48613;SDS011;34408;51.426;5.444;2022-07-19T07:13:12;6.00;;;2.85;;
48613;SDS011;34408;51.426;5.444;2022-07-19T07:15:40;6.43;;;3.20;;
48613;SDS011;34408;51.426;5.444;2022-07-19T07:18:10;5.78;;;3.13;;
48613;SDS011;34408;51.426;5.444;2022-07-19T07:20:38;5.05;;;2.97;;
48613;SDS011;34408;51.426;5.444;2022-07-19T07:23:07;4.93;;;3.20;;
48613;SDS011;34408;51.426;5.444;2022-07-19T07:25:36;11.00;;;3.63;;
48613;SDS011;34408;51.426;5.444;2022-07-19T07:28:04;5.68;;;2.70;;
48613;SDS011;34408;51.426;5.444;2022-07-19T07:30:32;4.90;;;2.83;;
48613;SDS011;34408;51.426;5.444;2022-07-19T07:33:00;9.77;;;2.80;;
48613;SDS011;34408;51.426;5.444;2022-07-19T07:35:28;7.65;;;3.45;;
48613;SDS011;34408;51.426;5.444;2022-07-19T07:37:55;6.93;;;3.55;;
48613;SDS011;34408;51.426;5.444;2022-07-19T07:40:25;6.50;;;3.47;;
48613;SDS011;34408;51.426;5.444;2022-07-19T07:42:52;6.10;;;3.10;;
48613;SDS011;34408;51.426;5.444;2022-07-19T07:45:20;8.70;;;3.20;;
48613;SDS011;34408;51.426;5.444;2022-07-19T07:47:48;8.75;;;2.80;;
48613;SDS011;34408;51.426;5.444;2022-07-19T07:50:16;5.65;;;3.30;;
48613;SDS011;34408;51.426;5.444;2022-07-19T07:52:44;8.10;;;3.33;;
48613;SDS011;34408;51.426;5.444;2022-07-19T07:55:12;10.90;;;3.28;;
48613;SDS011;34408;51.426;5.444;2022-07-19T07:57:55;8.27;;;2.50;;
48613;SDS011;34408;51.426;5.444;2022-07-19T08:00:22;8.85;;;2.67;;
48613;SDS011;34408;51.426;5.444;2022-07-19T08:02:50;5.60;;;3.33;;
48613;SDS011;34408;51.426;5.444;2022-07-19T08:05:19;6.03;;;3.45;;
48613;SDS011;34408;51.426;5.444;2022-07-19T08:07:48;5.50;;;2.75;;
48613;SDS011;34408;51.426;5.444;2022-07-19T08:10:19;7.70;;;3.53;;
48613;SDS011;34408;51.426;5.444;2022-07-19T08:12:48;4.95;;;2.80;;
48613;SDS011;34408;51.426;5.444;2022-07-19T08:15:17;4.30;;;2.70;;
48613;SDS011;34408;51.426;5.444;2022-07-19T08:17:45;10.48;;;3.00;;
48613;SDS011;34408;51.426;5.444;2022-07-19T08:20:13;5.35;;;2.92;;
48613;SDS011;34408;51.426;5.444;2022-07-19T08:22:41;5.72;;;2.95;;
48613;SDS011;34408;51.426;5.444;2022-07-19T08:25:10;7.43;;;2.85;;
48613;SDS011;34408;51.426;5.444;2022-07-19T08:27:41;5.65;;;2.78;;
48613;SDS011;34408;51.426;5.444;2022-07-19T08:30:09;7.30;;;2.72;;
48613;SDS011;34408;51.426;5.444;2022-07-19T08:32:39;5.22;;;2.45;;
48613;SDS011;34408;51.426;5.444;2022-07-19T08:35:07;4.43;;;2.30;;
48613;SDS011;34408;51.426;5.444;2022-07-19T08:37:36;5.53;;;3.25;;
48613;SDS011;34408;51.426;5.444;2022-07-19T08:40:04;6.07;;;2.55;;
48613;SDS011;34408;51.426;5.444;2022-07-19T08:42:33;5.63;;;2.50;;
48613;SDS011;34408;51.426;5.444;2022-07-19T08:45:03;6.15;;;2.97;;
48613;SDS011;34408;51.426;5.444;2022-07-19T08:47:33;3.95;;;2.55;;
48613;SDS011;34408;51.426;5.444;2022-07-19T08:50:04;6.32;;;2.85;;
48613;SDS011;34408;51.426;5.444;2022-07-19T08:52:33;4.53;;;3.33;;
48613;SDS011;34408;51.426;5.444;2022-07-19T08:55:02;4.70;;;2.70;;
48613;SDS011;34408;51.426;5.444;2022-07-19T08:57:30;8.40;;;2.60;;
48613;SDS011;34408;51.426;5.444;2022-07-19T09:00:15;7.28;;;2.70;;
48613;SDS011;34408;51.426;5.444;2022-07-19T09:02:51;4.07;;;2.60;;
48613;SDS011;34408;51.426;5.444;2022-07-19T09:08:04;4.57;;;2.55;;
48613;SDS011;34408;51.426;5.444;2022-07-19T09:10:34;6.65;;;2.53;;
48613;SDS011;34408;51.426;5.444;2022-07-19T09:13:06;6.03;;;2.80;;
48613;SDS011;34408;51.426;5.444;2022-07-19T09:15:45;5.90;;;3.03;;
48613;SDS011;34408;51.426;5.444;2022-07-19T09:18:15;4.78;;;2.83;;
48613;SDS011;34408;51.426;5.444;2022-07-19T09:20:47;4.68;;;2.60;;
48613;SDS011;34408;51.426;5.444;2022-07-19T09:23:16;4.72;;;2.70;;
48613;SDS011;34408;51.426;5.444;2022-07-19T09:25:46;5.57;;;2.38;;
48613;SDS011;34408;51.426;5.444;2022-07-19T09:28:16;7.05;;;2.67;;
48613;SDS011;34408;51.426;5.444;2022-07-19T09:30:45;4.50;;;2.53;;
48613;SDS011;34408;51.426;5.444;2022-07-19T09:33:15;6.03;;;2.88;;
48613;SDS011;34408;51.426;5.444;2022-07-19T09:35:45;4.22;;;2.33;;
48613;SDS011;34408;51.426;5.444;2022-07-19T09:38:23;3.90;;;2.40;;
48613;SDS011;34408;51.426;5.444;2022-07-19T09:40:53;3.88;;;2.40;;
48613;SDS011;34408;51.426;5.444;2022-07-19T09:43:22;3.70;;;2.00;;
48613;SDS011;34408;51.426;5.444;2022-07-19T09:46:26;5.88;;;2.60;;
48613;SDS011;34408;51.426;5.444;2022-07-19T09:49:06;5.30;;;2.70;;
48613;SDS011;34408;51.426;5.444;2022-07-19T09:51:36;4.55;;;2.60;;
48613;SDS011;34408;51.426;5.444;2022-07-19T09:54:07;3.05;;;2.03;;
48613;SDS011;34408;51.426;5.444;2022-07-19T09:56:37;3.65;;;2.33;;
48613;SDS011;34408;51.426;5.444;2022-07-19T09:59:07;2.58;;;1.95;;
48613;SDS011;34408;51.426;5.444;2022-07-19T10:01:35;7.07;;;2.55;;
48613;SDS011;34408;51.426;5.444;2022-07-19T10:04:06;4.40;;;2.83;;
48613;SDS011;34408;51.426;5.444;2022-07-19T10:06:36;6.22;;;2.40;;
48613;SDS011;34408;51.426;5.444;2022-07-19T10:09:05;7.32;;;2.30;;
48613;SDS011;34408;51.426;5.444;2022-07-19T10:11:34;6.65;;;2.40;;
48613;SDS011;34408;51.426;5.444;2022-07-19T10:14:04;7.55;;;2.55;;
48613;SDS011;34408;51.426;5.444;2022-07-19T10:16:35;3.70;;;2.13;;
48613;SDS011;34408;51.426;5.444;2022-07-19T10:19:16;4.35;;;2.90;;
48613;SDS011;34408;51.426;5.444;2022-07-19T10:21:46;4.55;;;2.35;;
48613;SDS011;34408;51.426;5.444;2022-07-19T10:27:15;5.53;;;2.78;;
48613;SDS011;34408;51.426;5.444;2022-07-19T10:29:44;6.10;;;2.70;;
48613;SDS011;34408;51.426;5.444;2022-07-19T10:32:13;4.93;;;2.60;;
48613;SDS011;34408;51.426;5.444;2022-07-19T10:34:42;4.63;;;2.15;;
48613;SDS011;34408;51.426;5.444;2022-07-19T10:37:14;3.97;;;2.38;;
48613;SDS011;34408;51.426;5.444;2022-07-19T10:40:07;5.78;;;2.50;;
48613;SDS011;34408;51.426;5.444;2022-07-19T10:48:38;5.05;;;2.45;;
48613;SDS011;34408;51.426;5.444;2022-07-19T10:51:09;3.28;;;2.55;;
48613;SDS011;34408;51.426;5.444;2022-07-19T10:59:29;7.63;;;2.90;;
48613;SDS011;34408;51.426;5.444;2022-07-19T11:01:58;5.85;;;2.42;;
48613;SDS011;34408;51.426;5.444;2022-07-19T11:04:48;4.13;;;2.20;;
48613;SDS011;34408;51.426;5.444;2022-07-19T11:07:18;8.02;;;2.53;;
48613;SDS011;34408;51.426;5.444;2022-07-19T11:09:50;4.35;;;2.20;;
48613;SDS011;34408;51.426;5.444;2022-07-19T11:12:21;3.70;;;2.17;;
48613;SDS011;34408;51.426;5.444;2022-07-19T11:14:50;2.97;;;2.25;;
48613;SDS011;34408;51.426;5.444;2022-07-19T11:17:38;5.97;;;2.10;;
48613;SDS011;34408;51.426;5.444;2022-07-19T11:20:07;3.25;;;2.17;;
48613;SDS011;34408;51.426;5.444;2022-07-19T11:22:39;3.95;;;2.42;;
48613;SDS011;34408;51.426;5.444;2022-07-19T11:25:09;3.58;;;2.05;;
48613;SDS011;34408;51.426;5.444;2022-07-19T11:27:39;4.75;;;2.10;;
48613;SDS011;34408;51.426;5.444;2022-07-19T11:30:09;4.75;;;2.10;;
48613;SDS011;34408;51.426;5.444;2022-07-19T11:32:40;6.43;;;2.42;;
48613;SDS011;34408;51.426;5.444;2022-07-19T11:35:10;3.97;;;2.38;;
48613;SDS011;34408;51.426;5.444;2022-07-19T11:37:41;8.00;;;2.20;;
48613;SDS011;34408;51.426;5.444;2022-07-19T11:40:11;5.60;;;2.05;;
48613;SDS011;34408;51.426;5.444;2022-07-19T11:42:40;4.80;;;2.20;;
48613;SDS011;34408;51.426;5.444;2022-07-19T11:45:29;6.07;;;2.30;;
48613;SDS011;34408;51.426;5.444;2022-07-19T11:47:57;4.50;;;2.20;;
48613;SDS011;34408;51.426;5.444;2022-07-19T11:50:26;6.10;;;2.05;;
48613;SDS011;34408;51.426;5.444;2022-07-19T11:52:55;6.28;;;2.22;;
48613;SDS011;34408;51.426;5.444;2022-07-19T11:55:25;5.35;;;2.47;;
48613;SDS011;34408;51.426;5.444;2022-07-19T11:57:55;4.60;;;1.98;;
48613;SDS011;34408;51.426;5.444;2022-07-19T12:00:24;4.40;;;1.90;;
48613;SDS011;34408;51.426;5.444;2022-07-19T12:02:53;3.75;;;2.15;;
48613;SDS011;34408;51.426;5.444;2022-07-19T12:05:24;4.65;;;2.10;;
48613;SDS011;34408;51.426;5.444;2022-07-19T12:07:53;3.72;;;1.90;;
48613;SDS011;34408;51.426;5.444;2022-07-19T12:10:35;4.57;;;2.38;;
48613;SDS011;34408;51.426;5.444;2022-07-19T12:13:05;6.78;;;2.40;;
48613;SDS011;34408;51.426;5.444;2022-07-19T12:15:44;3.40;;;2.30;;
48613;SDS011;34408;51.426;5.444;2022-07-19T12:18:14;3.88;;;2.05;;
48613;SDS011;34408;51.426;5.444;2022-07-19T12:20:44;7.25;;;2.10;;
48613;SDS011;34408;51.426;5.444;2022-07-19T12:23:15;3.17;;;2.08;;
48613;SDS011;34408;51.426;5.444;2022-07-19T12:25:50;4.50;;;1.73;;
48613;SDS011;34408;51.426;5.444;2022-07-19T12:28:25;6.18;;;2.13;;
48613;SDS011;34408;51.426;5.444;2022-07-19T12:30:59;3.58;;;1.70;;
48613;SDS011;34408;51.426;5.444;2022-07-19T12:33:28;2.47;;;1.95;;
48613;SDS011;34408;51.426;5.444;2022-07-19T12:35:57;4.53;;;2.00;;
48613;SDS011;34408;51.426;5.444;2022-07-19T12:38:30;3.35;;;1.90;;
48613;SDS011;34408;51.426;5.444;2022-07-19T12:41:07;4.75;;;1.95;;
48613;SDS011;34408;51.426;5.444;2022-07-19T12:43:36;3.72;;;2.00;;
48613;SDS011;34408;51.426;5.444;2022-07-19T12:46:04;4.65;;;1.75;;
48613;SDS011;34408;51.426;5.444;2022-07-19T12:48:32;4.13;;;1.80;;
48613;SDS011;34408;51.426;5.444;2022-07-19T12:50:59;4.38;;;2.13;;
48613;SDS011;34408;51.426;5.444;2022-07-19T12:53:27;2.83;;;1.55;;
48613;SDS011;34408;51.426;5.444;2022-07-19T12:55:55;4.32;;;1.60;;
48613;SDS011;34408;51.426;5.444;2022-07-19T12:58:25;5.13;;;1.80;;
48613;SDS011;34408;51.426;5.444;2022-07-19T13:01:25;7.55;;;2.22;;
48613;SDS011;34408;51.426;5.444;2022-07-19T13:03:52;5.75;;;1.90;;
48613;SDS011;34408;51.426;5.444;2022-07-19T13:06:20;5.65;;;2.13;;
48613;SDS011;34408;51.426;5.444;2022-07-19T13:08:51;5.13;;;1.90;;
48613;SDS011;34408;51.426;5.444;2022-07-19T13:11:19;2.83;;;1.90;;
48613;SDS011;34408;51.426;5.444;2022-07-19T13:13:48;4.85;;;2.10;;
48613;SDS011;34408;51.426;5.444;2022-07-19T13:16:16;10.57;;;2.78;;
48613;SDS011;34408;51.426;5.444;2022-07-19T13:18:44;4.70;;;2.15;;
48613;SDS011;34408;51.426;5.444;2022-07-19T13:21:13;4.25;;;2.20;;
48613;SDS011;34408;51.426;5.444;2022-07-19T13:23:40;5.85;;;2.20;;
48613;SDS011;34408;51.426;5.444;2022-07-19T13:26:08;2.55;;;1.95;;
48613;SDS011;34408;51.426;5.444;2022-07-19T13:28:36;6.43;;;2.70;;
48613;SDS011;34408;51.426;5.444;2022-07-19T13:31:06;5.38;;;2.25;;
48613;SDS011;34408;51.426;5.444;2022-07-19T13:33:34;3.50;;;2.10;;
48613;SDS011;34408;51.426;5.444;2022-07-19T13:36:02;2.92;;;1.88;;
48613;SDS011;34408;51.426;5.444;2022-07-19T13:38:30;3.90;;;2.15;;
48613;SDS011;34408;51.426;5.444;2022-07-19T13:40:58;2.83;;;2.00;;
48613;SDS011;34408;51.426;5.444;2022-07-19T13:43:26;4.78;;;2.55;;
48613;SDS011;34408;51.426;5.444;2022-07-19T13:45:54;3.70;;;2.00;;
48613;SDS011;34408;51.426;5.444;2022-07-19T13:48:23;4.47;;;2.40;;
48613;SDS011;34408;51.426;5.444;2022-07-19T13:50:51;3.60;;;2.20;;
48613;SDS011;34408;51.426;5.444;2022-07-19T13:53:19;6.03;;;2.55;;
48613;SDS011;34408;51.426;5.444;2022-07-19T13:55:47;7.25;;;2.22;;
48613;SDS011;34408;51.426;5.444;2022-07-19T13:58:15;3.75;;;2.03;;
48613;SDS011;34408;51.426;5.444;2022-07-19T14:00:43;3.67;;;2.17;;
48613;SDS011;34408;51.426;5.444;2022-07-19T14:03:12;3.13;;;1.90;;
48613;SDS011;34408;51.426;5.444;2022-07-19T14:05:42;3.38;;;2.33;;
48613;SDS011;34408;51.426;5.444;2022-07-19T14:08:10;5.03;;;2.30;;
48613;SDS011;34408;51.426;5.444;2022-07-19T14:10:38;9.20;;;2.22;;
48613;SDS011;34408;51.426;5.444;2022-07-19T14:13:07;4.22;;;2.25;;
48613;SDS011;34408;51.426;5.444;2022-07-19T14:15:55;5.55;;;1.95;;
48613;SDS011;34408;51.426;5.444;2022-07-19T14:18:22;5.63;;;2.47;;
48613;SDS011;34408;51.426;5.444;2022-07-19T14:20:52;6.88;;;2.17;;
48613;SDS011;34408;51.426;5.444;2022-07-19T14:23:20;5.38;;;2.33;;
48613;SDS011;34408;51.426;5.444;2022-07-19T14:25:48;4.47;;;2.53;;
48613;SDS011;34408;51.426;5.444;2022-07-19T14:28:27;8.38;;;2.22;;
48613;SDS011;34408;51.426;5.444;2022-07-19T14:30:54;6.82;;;2.40;;
48613;SDS011;34408;51.426;5.444;2022-07-19T14:33:22;2.90;;;1.73;;
48613;SDS011;34408;51.426;5.444;2022-07-19T14:35:53;4.53;;;2.15;;
48613;SDS011;34408;51.426;5.444;2022-07-19T14:38:21;4.30;;;2.38;;
48613;SDS011;34408;51.426;5.444;2022-07-19T14:40:49;3.22;;;2.20;;
48613;SDS011;34408;51.426;5.444;2022-07-19T14:43:17;2.60;;;2.10;;
48613;SDS011;34408;51.426;5.444;2022-07-19T14:45:44;4.10;;;2.03;;
48613;SDS011;34408;51.426;5.444;2022-07-19T14:48:12;4.88;;;2.10;;
48613;SDS011;34408;51.426;5.444;2022-07-19T14:50:40;3.65;;;1.92;;
48613;SDS011;34408;51.426;5.444;2022-07-19T14:53:10;5.10;;;2.28;;
48613;SDS011;34408;51.426;5.444;2022-07-19T14:55:38;4.25;;;1.70;;
48613;SDS011;34408;51.426;5.444;2022-07-19T14:58:08;4.50;;;2.22;;
48613;SDS011;34408;51.426;5.444;2022-07-19T15:00:36;3.38;;;2.10;;
48613;SDS011;34408;51.426;5.444;2022-07-19T15:03:05;8.35;;;2.38;;
48613;SDS011;34408;51.426;5.444;2022-07-19T15:05:32;4.47;;;2.53;;
48613;SDS011;34408;51.426;5.444;2022-07-19T15:08:00;4.97;;;1.98;;
48613;SDS011;34408;51.426;5.444;2022-07-19T15:10:29;3.40;;;1.88;;
48613;SDS011;34408;51.426;5.444;2022-07-19T15:12:57;3.63;;;1.90;;
48613;SDS011;34408;51.426;5.444;2022-07-19T15:15:25;3.90;;;2.40;;
48613;SDS011;34408;51.426;5.444;2022-07-19T15:17:53;4.25;;;2.03;;
48613;SDS011;34408;51.426;5.444;2022-07-19T15:20:25;7.95;;;2.13;;
48613;SDS011;34408;51.426;5.444;2022-07-19T15:22:53;4.78;;;2.72;;